NCAR-RAP Real-Time Weather Data

Output produced by METARs form (10 April 2020  07:20 UTC)
found at http://weather.rap.ucar.edu/surface/
 
KLAS 100656Z 07006KT 10SM OVC075 13/01 A3007 RMK AO2 SLP174 T01330011
KLAS 100556Z 31006KT 10SM BKN075 OVC090 13/01 A3006 RMK AO2 SLP173 T01330011 10156 20133 50005
KLAS 100456Z 30006KT 10SM BKN075 OVC095 13/01 A3006 RMK AO2 SLP175 T01330011
KLAS 100356Z 34006KT 10SM FEW055 FEW085 BKN250 14/01 A3006 RMK AO2 SLP175 T01390006
KLAS 100256Z 34009KT 10SM FEW055 FEW085 BKN250 14/01 A3004 RMK AO2 SLP168 T01390011 53002
KLAS 100156Z 29006KT 10SM FEW055 FEW085 BKN250 14/01 A3003 RMK AO2 SLP162 T01440011
KLAS 100056Z 27006KT 10SM FEW055 SCT085 BKN250 15/01 A3003 RMK AO2 SLP164 VCSH T01500006
KLAS 092356Z 19009KT 10SM SCT055 BKN090 BKN250 15/01 A3004 RMK AO2 SLP165 VCSH T01500011 10161 20122 57016
KLAS 092256Z 09010KT 10SM SCT055 BKN090 BKN250 16/01 A3005 RMK AO2 SLP168 VCSH T01610006
KLAS 092156Z 10013KT 10SM SCT050 BKN070 BKN250 13/03 A3008 RMK AO2 SLP180 VCSH T01280028
KLAS 092056Z 09011KT 10SM SCT055 BKN070 15/02 A3009 RMK AO2 SLP183 VCSH T01500017 56013
KLAS 091956Z 07009KT 10SM BKN055 BKN070 14/00 A3009 RMK AO2 SLP183 T01440000
KLAS 091856Z VRB04KT 10SM SCT090 SCT150 14/M01 A3011 RMK AO2 SLP192 T01391006
KLAS 091756Z VRB03KT 10SM SCT090 SCT150 12/00 A3013 RMK AO2 SLP197 T01220000 10122 20089 50001
KLAS 091656Z 22006KT 10SM SCT060 BKN120 BKN150 11/02 A3014 RMK AO2 SLP202 VIRGA S-SW T01110017
KLAS 091556Z VRB04KT 10SM SCT060 BKN120 BKN150 11/02 A3013 RMK AO2 SLP199 T01060017
KLAS 091456Z VRB03KT 10SM SCT060 BKN120 BKN150 09/03 A3012 RMK AO2 SLP197 T00940028 51021
KLAS 091356Z 20005KT 10SM SCT090 BKN150 BKN250 09/02 A3010 RMK AO2 SLP190 T00940022
KLAS 091256Z 18007KT 10SM BKN090 BKN170 09/02 A3008 RMK AO2 SLP180 T00940022
KLAS 091156Z 17006KT 10SM FEW080 OVC170 09/02 A3005 RMK AO2 SLP172 T00940017 10106 20094 53008
KLAS 091056Z VRB04KT 10SM FEW080 OVC170 10/02 A3004 RMK AO2 SLP166 T01000017